createdAt,value
2017-06-25T00:01:53.096Z,5.30
2017-06-25T00:04:21.348Z,4.63
2017-06-25T00:06:49.608Z,5.00
2017-06-25T00:09:17.111Z,4.60
2017-06-25T00:11:44.604Z,4.80
2017-06-25T00:14:12.415Z,5.53
2017-06-25T00:16:40.685Z,4.80
2017-06-25T00:19:10.178Z,4.90
2017-06-25T00:21:37.692Z,5.10
2017-06-25T00:24:05.203Z,5.57
2017-06-25T00:26:32.996Z,4.30
2017-06-25T00:29:01.256Z,5.00
2017-06-25T00:31:28.743Z,4.70
2017-06-25T00:33:56.259Z,4.90
2017-06-25T00:36:23.751Z,4.37
2017-06-25T00:38:51.520Z,5.20
2017-06-25T00:41:19.779Z,4.53
2017-06-25T00:43:47.284Z,4.73
2017-06-25T00:46:14.786Z,5.27
2017-06-25T00:48:42.276Z,4.73
2017-06-25T00:51:10.860Z,4.27
2017-06-25T00:53:44.731Z,4.73
2017-06-25T00:56:12.496Z,4.90
2017-06-25T00:58:39.984Z,5.00
2017-06-25T01:01:08.244Z,5.50
2017-06-25T01:03:35.750Z,4.60
2017-06-25T01:06:03.240Z,5.20
2017-06-25T01:08:34.433Z,4.50
2017-06-25T01:11:01.930Z,4.57
2017-06-25T01:13:29.440Z,4.97
2017-06-25T01:15:57.735Z,4.70
2017-06-25T01:18:25.247Z,4.60
2017-06-25T01:20:53.015Z,5.57
2017-06-25T01:23:20.508Z,5.40
2017-06-25T01:25:48.768Z,5.57
2017-06-25T01:28:16.276Z,4.60
2017-06-25T01:30:43.771Z,4.37
2017-06-25T01:33:11.568Z,4.47
2017-06-25T01:35:39.059Z,4.50
2017-06-25T01:38:06.574Z,4.70
2017-06-25T01:40:34.859Z,4.73
2017-06-25T01:43:02.348Z,4.33
2017-06-25T01:45:29.868Z,4.20
2017-06-25T01:47:57.351Z,4.67
2017-06-25T01:50:25.211Z,4.60
2017-06-25T01:52:52.699Z,5.00
2017-06-25T01:55:20.192Z,4.60
2017-06-25T01:57:47.701Z,5.20
2017-06-25T02:00:15.200Z,5.10
2017-06-25T02:02:42.708Z,4.80
2017-06-25T02:05:10.968Z,4.77
2017-06-25T02:07:39.503Z,4.70
2017-06-25T02:10:06.991Z,4.50
2017-06-25T02:12:34.484Z,4.60
2017-06-25T02:15:02.009Z,4.80
2017-06-25T02:17:29.500Z,4.67
2017-06-25T02:19:57.028Z,4.97
2017-06-25T02:22:24.524Z,5.30
2017-06-25T02:24:52.291Z,4.70
2017-06-25T02:27:19.784Z,4.40
2017-06-25T02:29:47.275Z,5.40
2017-06-25T02:32:14.790Z,5.20
2017-06-25T02:34:42.280Z,4.57
2017-06-25T02:37:09.780Z,4.60
2017-06-25T02:39:37.311Z,5.23
2017-06-25T02:42:04.824Z,5.27
2017-06-25T02:44:32.337Z,4.77
2017-06-25T02:46:59.837Z,5.30
2017-06-25T02:49:27.343Z,5.57
2017-06-25T02:51:54.823Z,5.03
2017-06-25T02:54:22.335Z,5.17
2017-06-25T02:56:49.831Z,5.33
2017-06-25T02:59:18.439Z,5.00
2017-06-25T03:01:45.946Z,5.40
2017-06-25T03:04:13.436Z,5.03
2017-06-25T03:06:40.960Z,5.10
2017-06-25T03:09:35.040Z,5.17
2017-06-25T03:12:02.540Z,4.60
2017-06-25T03:14:30.028Z,4.40
2017-06-25T03:16:57.892Z,5.43
2017-06-25T03:19:25.388Z,5.10
2017-06-25T03:21:52.881Z,4.90
2017-06-25T03:24:21.172Z,4.37
2017-06-25T03:26:48.667Z,5.10
2017-06-25T03:29:16.198Z,4.83
2017-06-25T03:31:44.461Z,4.60
2017-06-25T03:34:12.356Z,4.80
2017-06-25T03:36:39.875Z,5.13
2017-06-25T03:39:10.699Z,4.57
2017-06-25T03:41:38.223Z,5.53
2017-06-25T03:44:05.718Z,5.67
2017-06-25T03:46:33.228Z,4.80
2017-06-25T03:49:00.715Z,5.20
2017-06-25T03:51:28.540Z,5.70
2017-06-25T03:53:56.795Z,5.10
2017-06-25T03:56:24.275Z,5.43
2017-06-25T03:58:51.823Z,4.80
2017-06-25T04:01:19.308Z,6.03
2017-06-25T04:03:46.824Z,5.43
2017-06-25T04:06:14.310Z,4.57
2017-06-25T04:08:42.880Z,5.03
2017-06-25T04:11:10.364Z,5.00
2017-06-25T04:13:38.609Z,5.17
2017-06-25T04:16:06.107Z,5.10
2017-06-25T04:18:33.587Z,5.50
2017-06-25T04:21:01.095Z,5.10
2017-06-25T04:23:28.587Z,5.00
2017-06-25T04:25:56.405Z,6.10
2017-06-25T04:28:23.900Z,5.53
2017-06-25T04:30:52.167Z,5.20
2017-06-25T04:33:20.481Z,6.13
2017-06-25T04:35:47.972Z,4.70
2017-06-25T04:38:15.475Z,5.70
2017-06-25T04:40:42.960Z,5.70
2017-06-25T04:43:10.721Z,5.90
2017-06-25T04:45:38.211Z,5.80
2017-06-25T04:48:05.692Z,5.87
2017-06-25T04:50:33.211Z,6.03
2017-06-25T04:53:00.698Z,5.30
2017-06-25T04:55:28.208Z,5.60
2017-06-25T04:57:55.695Z,5.63
2017-06-25T05:00:23.522Z,7.20
2017-06-25T05:02:51.780Z,6.10
2017-06-25T05:05:19.269Z,5.90
2017-06-25T05:07:46.779Z,5.73
2017-06-25T05:10:14.358Z,5.77
2017-06-25T05:12:42.148Z,5.30
2017-06-25T05:15:09.637Z,5.37
2017-06-25T05:17:37.141Z,5.90
2017-06-25T05:20:04.664Z,6.50
2017-06-25T05:22:32.161Z,6.33
2017-06-25T05:24:59.936Z,5.87
2017-06-25T05:27:27.430Z,5.60
2017-06-25T05:29:54.919Z,5.10
2017-06-25T05:32:22.423Z,5.53
2017-06-25T05:34:49.916Z,5.70
2017-06-25T05:37:17.676Z,5.40
2017-06-25T05:39:45.172Z,5.43
2017-06-25T05:42:12.724Z,5.03
2017-06-25T05:44:40.272Z,5.23
2017-06-25T05:47:07.760Z,5.07
2017-06-25T05:49:35.559Z,4.80
2017-06-25T05:52:03.060Z,5.00
2017-06-25T05:54:30.549Z,4.40
2017-06-25T05:56:58.061Z,4.80
2017-06-25T05:59:25.544Z,4.07
2017-06-25T06:01:53.353Z,4.83
2017-06-25T06:04:21.608Z,4.40
2017-06-25T06:06:49.103Z,4.00
2017-06-25T06:09:16.603Z,4.77
2017-06-25T06:11:44.091Z,4.73
2017-06-25T06:14:12.787Z,4.20
2017-06-25T06:16:41.048Z,4.50
2017-06-25T06:19:08.540Z,4.30
2017-06-25T06:21:36.068Z,5.10
2017-06-25T06:24:03.568Z,5.20
2017-06-25T06:26:31.416Z,4.63
2017-06-25T06:28:58.941Z,4.70
2017-06-25T06:31:26.441Z,4.30
2017-06-25T06:33:53.955Z,4.40
2017-06-25T06:36:21.448Z,4.20
2017-06-25T06:38:50.154Z,4.60
2017-06-25T06:41:17.685Z,4.43
2017-06-25T06:43:45.974Z,4.60
2017-06-25T06:46:13.517Z,4.33
2017-06-25T06:48:41.033Z,4.57
2017-06-25T06:51:08.892Z,4.60
2017-06-25T06:53:36.412Z,4.17
2017-06-25T06:56:04.717Z,4.10
2017-06-25T06:58:32.588Z,4.00
2017-06-25T07:01:00.129Z,4.63
2017-06-25T07:03:27.648Z,4.33
2017-06-25T07:05:55.204Z,4.47
2017-06-25T07:08:22.724Z,4.97
2017-06-25T07:10:50.263Z,4.30
2017-06-25T07:13:17.795Z,4.37
2017-06-25T07:15:45.317Z,4.37
2017-06-25T07:18:13.132Z,4.57
2017-06-25T07:20:40.624Z,4.23
2017-06-25T07:23:08.117Z,4.47
2017-06-25T07:25:35.965Z,4.50
2017-06-25T07:28:03.627Z,4.40
2017-06-25T07:30:31.551Z,4.27
2017-06-25T07:32:59.055Z,4.33
2017-06-25T07:35:26.553Z,4.00
2017-06-25T07:37:54.058Z,4.00
2017-06-25T07:40:21.550Z,3.87
2017-06-25T07:42:49.383Z,3.87
2017-06-25T07:45:16.923Z,4.20
2017-06-25T07:47:44.412Z,3.80
2017-06-25T07:50:11.920Z,4.13
2017-06-25T07:52:39.411Z,3.77
2017-06-25T07:55:07.683Z,3.63
2017-06-25T07:57:35.949Z,4.00
2017-06-25T08:00:04.551Z,4.57
2017-06-25T08:02:32.806Z,4.20
2017-06-25T08:05:00.294Z,4.00
2017-06-25T08:07:27.808Z,3.80
2017-06-25T08:09:55.294Z,3.73
2017-06-25T08:12:23.167Z,4.17
2017-06-25T08:14:50.648Z,3.40
2017-06-25T08:17:18.136Z,4.17
2017-06-25T08:19:45.648Z,4.73
2017-06-25T08:22:13.911Z,3.60
2017-06-25T08:24:41.755Z,3.80
2017-06-25T08:27:09.240Z,4.00
2017-06-25T08:29:37.495Z,3.77
2017-06-25T08:32:05.007Z,3.70
2017-06-25T08:34:32.498Z,3.23
2017-06-25T08:37:00.300Z,2.90
2017-06-25T08:39:28.555Z,2.87
2017-06-25T08:41:56.052Z,2.70
2017-06-25T08:44:23.576Z,3.27
2017-06-25T08:46:51.063Z,2.80
2017-06-25T08:49:19.662Z,2.90
2017-06-25T08:51:48.576Z,2.67
2017-06-25T08:54:17.404Z,3.00
2017-06-25T08:56:44.918Z,2.80
2017-06-25T08:59:12.396Z,2.80
2017-06-25T09:01:40.231Z,3.20
2017-06-25T09:04:07.711Z,3.00
2017-06-25T09:06:35.213Z,2.90
2017-06-25T09:09:02.721Z,3.10
2017-06-25T09:11:30.207Z,2.70
2017-06-25T09:13:57.976Z,3.10
2017-06-25T09:16:25.474Z,3.20
2017-06-25T09:18:53.732Z,3.13
2017-06-25T09:21:21.236Z,3.00
2017-06-25T09:23:48.719Z,3.10
2017-06-25T09:26:16.532Z,3.00
2017-06-25T09:28:44.019Z,3.20
2017-06-25T09:31:11.502Z,2.70
2017-06-25T09:33:39.019Z,3.10
2017-06-25T09:36:06.511Z,3.13
2017-06-25T09:38:34.355Z,3.10
2017-06-25T09:41:01.875Z,2.87
2017-06-25T09:43:29.361Z,3.10
2017-06-25T09:45:57.639Z,2.70
2017-06-25T09:48:25.899Z,2.70
2017-06-25T09:50:53.678Z,3.00
2017-06-25T09:53:21.932Z,2.67
2017-06-25T09:55:49.423Z,3.07
2017-06-25T09:58:16.934Z,3.23
2017-06-25T10:00:44.427Z,3.20
2017-06-25T10:03:12.955Z,2.80
2017-06-25T10:05:40.445Z,2.73
2017-06-25T10:08:07.951Z,2.77
2017-06-25T10:10:35.464Z,3.53
2017-06-25T10:13:02.963Z,2.80
2017-06-25T10:15:30.828Z,3.40
2017-06-25T10:17:58.327Z,3.47
2017-06-25T10:20:25.815Z,2.90
2017-06-25T10:22:53.368Z,3.87
2017-06-25T10:25:21.596Z,2.90
2017-06-25T10:27:49.106Z,2.70
2017-06-25T10:30:16.597Z,3.13
2017-06-25T10:32:45.188Z,3.23
2017-06-25T10:35:12.688Z,3.10
2017-06-25T10:37:40.176Z,2.90
2017-06-25T10:40:07.691Z,2.97
2017-06-25T10:42:35.171Z,2.80
2017-06-25T10:45:02.940Z,3.30
2017-06-25T10:47:30.439Z,2.80
2017-06-25T10:49:57.927Z,2.77
2017-06-25T10:52:25.428Z,3.30
2017-06-25T10:54:52.915Z,3.20
2017-06-25T10:57:21.204Z,3.10
2017-06-25T10:59:48.694Z,3.20
2017-06-25T11:02:16.624Z,3.20
2017-06-25T11:04:44.108Z,2.90
2017-06-25T11:07:11.597Z,2.70
2017-06-25T11:09:40.766Z,3.40
2017-06-25T11:17:49.477Z,3.80
2017-06-25T11:20:16.989Z,3.40
2017-06-25T11:25:39.539Z,3.40
2017-06-25T11:28:07.113Z,3.17
2017-06-25T11:33:07.112Z,3.27
2017-06-25T11:35:35.895Z,2.90
2017-06-25T11:38:03.459Z,3.07
2017-06-25T11:40:30.993Z,2.67
2017-06-25T11:42:59.342Z,3.00
2017-06-25T11:45:26.879Z,3.20
2017-06-25T11:47:54.535Z,2.83
2017-06-25T11:50:22.616Z,3.00
2017-06-25T11:52:50.904Z,3.13
2017-06-25T11:55:18.450Z,2.90
2017-06-25T11:57:46.673Z,3.07
2017-06-25T12:00:14.358Z,3.70
2017-06-25T12:02:41.915Z,3.50
2017-06-25T12:05:21.167Z,3.27
2017-06-25T12:07:48.781Z,3.50
2017-06-25T12:10:16.418Z,3.37
2017-06-25T12:12:43.948Z,3.80
2017-06-25T12:15:11.499Z,3.43
2017-06-25T12:17:39.808Z,3.40
2017-06-25T12:20:07.368Z,3.17
2017-06-25T12:22:35.161Z,4.10
2017-06-25T12:25:02.687Z,4.27
2017-06-25T12:27:33.913Z,3.97
2017-06-25T12:30:02.200Z,3.93
2017-06-25T12:32:30.518Z,4.17
2017-06-25T12:34:58.090Z,4.20
2017-06-25T12:37:25.616Z,4.40
2017-06-25T12:39:53.486Z,4.00
2017-06-25T12:42:21.034Z,4.20
2017-06-25T12:44:48.570Z,3.30
2017-06-25T12:47:16.880Z,3.77
2017-06-25T12:49:44.425Z,3.90
2017-06-25T12:52:12.710Z,3.73
2017-06-25T12:54:41.226Z,3.40
2017-06-25T12:57:09.056Z,3.67
2017-06-25T12:59:37.339Z,3.70
2017-06-25T13:02:04.864Z,4.10
2017-06-25T13:04:33.181Z,3.60
2017-06-25T13:07:00.676Z,3.40
2017-06-25T13:09:28.183Z,3.63
2017-06-25T13:11:56.986Z,3.23
2017-06-25T13:14:24.811Z,3.57
2017-06-25T13:16:54.826Z,3.73
2017-06-25T13:19:22.334Z,3.93
2017-06-25T13:21:49.850Z,3.90
2017-06-25T13:24:17.330Z,3.77
2017-06-25T13:26:45.612Z,2.97
2017-06-25T13:29:13.329Z,4.00
2017-06-25T13:31:41.169Z,3.80
2017-06-25T13:34:08.692Z,3.40
2017-06-25T13:36:37.109Z,3.20
2017-06-25T13:39:04.659Z,3.77
2017-06-25T13:41:32.169Z,3.20
2017-06-25T13:43:59.683Z,2.97
2017-06-25T13:46:27.169Z,3.10
2017-06-25T13:48:55.097Z,3.53
2017-06-25T13:51:23.375Z,3.63
2017-06-25T13:53:51.636Z,3.83
2017-06-25T13:56:19.147Z,3.90
2017-06-25T13:58:46.639Z,3.80
2017-06-25T14:01:14.270Z,3.20
2017-06-25T14:03:41.841Z,3.30
2017-06-25T14:06:09.667Z,3.53
2017-06-25T14:08:37.158Z,3.87
2017-06-25T14:11:04.643Z,3.33
2017-06-25T14:13:32.147Z,3.47
2017-06-25T14:15:59.634Z,3.40
2017-06-25T14:18:27.964Z,3.83
2017-06-25T14:20:56.219Z,3.27
2017-06-25T14:23:23.704Z,3.80
2017-06-25T14:25:51.971Z,3.50
2017-06-25T14:28:20.232Z,2.90
2017-06-25T14:30:47.747Z,3.00
2017-06-25T14:33:15.235Z,3.07
2017-06-25T14:35:42.999Z,3.47
2017-06-25T14:38:10.483Z,3.40
2017-06-25T14:40:37.991Z,2.60
2017-06-25T14:43:06.040Z,2.80
2017-06-25T14:45:34.289Z,2.83
2017-06-25T14:48:01.793Z,3.20
2017-06-25T14:50:29.271Z,3.20
2017-06-25T14:52:57.125Z,3.20
2017-06-25T14:55:24.607Z,3.20
2017-06-25T14:57:52.704Z,3.20
2017-06-25T15:00:20.218Z,2.97
2017-06-25T15:02:47.707Z,3.33
2017-06-25T15:05:15.213Z,3.70
2017-06-25T15:07:42.711Z,3.33
2017-06-25T15:10:10.558Z,2.90
2017-06-25T15:12:38.172Z,3.47
2017-06-25T15:15:05.857Z,3.00
2017-06-25T15:17:33.370Z,2.97
2017-06-25T15:20:00.865Z,3.10
2017-06-25T15:22:29.156Z,3.47
2017-06-25T15:24:57.407Z,3.00
2017-06-25T15:27:25.228Z,2.50
2017-06-25T15:29:52.727Z,2.70
2017-06-25T15:32:20.223Z,3.20
2017-06-25T15:34:47.749Z,2.70
2017-06-25T15:37:15.252Z,3.10
2017-06-25T15:39:42.776Z,2.80
2017-06-25T15:42:10.333Z,3.87
2017-06-25T15:44:38.993Z,2.87
2017-06-25T15:47:06.522Z,2.67
2017-06-25T15:49:34.062Z,3.10
2017-06-25T15:52:01.586Z,3.07
2017-06-25T15:54:29.936Z,3.13
2017-06-25T15:56:57.485Z,2.80
2017-06-25T15:59:25.007Z,3.00
2017-06-25T16:01:53.664Z,3.07
2017-06-25T16:04:21.203Z,3.17
2017-06-25T16:06:49.245Z,3.20
2017-06-25T16:09:16.808Z,3.10
2017-06-25T16:11:44.528Z,3.13
2017-06-25T16:14:12.168Z,3.07
2017-06-25T16:16:39.753Z,2.60
2017-06-25T16:19:07.616Z,2.63
2017-06-25T16:21:35.182Z,2.97
2017-06-25T16:24:03.547Z,2.90
2017-06-25T16:26:31.098Z,3.00
2017-06-25T16:28:58.653Z,2.90
2017-06-25T16:31:26.209Z,2.70
2017-06-25T16:33:53.759Z,2.73
2017-06-25T16:36:21.561Z,2.60
2017-06-25T16:38:49.133Z,3.00
2017-06-25T16:41:16.660Z,3.40
2017-06-25T16:43:44.200Z,2.57
2017-06-25T16:46:11.788Z,2.70
2017-06-25T16:48:39.740Z,3.10
2017-06-25T16:51:07.315Z,2.63
2017-06-25T16:53:34.977Z,2.80
2017-06-25T16:56:02.604Z,3.10
2017-06-25T16:58:31.127Z,3.10
2017-06-25T17:00:58.824Z,3.20
2017-06-25T17:03:27.860Z,3.00
2017-06-25T17:05:55.786Z,3.60
2017-06-25T17:08:23.326Z,2.60
2017-06-25T17:10:51.707Z,3.23
2017-06-25T17:13:19.296Z,3.00
2017-06-25T17:15:47.888Z,2.90
2017-06-25T17:18:16.417Z,2.90
2017-06-25T17:20:44.441Z,2.90
2017-06-25T17:23:11.932Z,2.93
2017-06-25T17:25:39.476Z,3.33
2017-06-25T17:28:06.988Z,3.03
2017-06-25T17:30:34.799Z,2.60
2017-06-25T17:33:03.163Z,2.90
2017-06-25T17:35:30.680Z,2.70
2017-06-25T17:37:58.193Z,3.00
2017-06-25T17:40:26.450Z,3.50
2017-06-25T17:42:53.979Z,2.80
2017-06-25T17:45:21.472Z,2.77
2017-06-25T17:47:50.105Z,2.90
2017-06-25T17:50:17.598Z,3.03
2017-06-25T17:52:45.107Z,2.57
2017-06-25T17:55:12.632Z,2.40
2017-06-25T17:57:40.134Z,2.67
2017-06-25T18:00:07.639Z,2.80
2017-06-25T18:02:35.130Z,2.53
2017-06-25T18:05:03.728Z,2.83
2017-06-25T18:07:31.219Z,2.70
2017-06-25T18:09:58.720Z,2.90
2017-06-25T18:12:27.007Z,2.60
2017-06-25T18:14:55.267Z,3.07
2017-06-25T18:17:22.771Z,2.50
2017-06-25T18:19:50.267Z,3.23
2017-06-25T18:22:18.079Z,2.53
2017-06-25T18:24:45.587Z,3.00
2017-06-25T18:27:13.087Z,2.57
2017-06-25T18:29:40.604Z,2.90
2017-06-25T18:32:08.099Z,2.67
2017-06-25T18:34:36.380Z,2.90
2017-06-25T18:37:03.872Z,2.40
2017-06-25T18:39:31.717Z,2.67
2017-06-25T18:41:59.212Z,2.43
2017-06-25T18:44:26.712Z,2.60
2017-06-25T18:46:54.222Z,3.20
2017-06-25T18:49:21.720Z,2.43
2017-06-25T18:51:49.493Z,2.60
2017-06-25T18:54:17.759Z,2.60
2017-06-25T18:56:45.251Z,2.20
2017-06-25T18:59:12.780Z,2.40
2017-06-25T19:01:40.273Z,2.70
2017-06-25T19:04:08.139Z,3.17
2017-06-25T19:06:36.468Z,2.30
2017-06-25T19:09:03.971Z,2.90
2017-06-25T19:11:32.264Z,2.60
2017-06-25T19:13:59.760Z,2.43
2017-06-25T19:16:27.277Z,2.40
2017-06-25T19:18:54.767Z,2.70
2017-06-25T19:21:22.592Z,2.63
2017-06-25T19:23:50.859Z,2.67
2017-06-25T19:26:18.360Z,2.10
2017-06-25T19:28:45.903Z,2.50
2017-06-25T19:31:13.399Z,2.60
2017-06-25T19:33:41.036Z,2.57
2017-06-25T19:36:08.544Z,3.10
2017-06-25T19:38:36.035Z,2.80
2017-06-25T19:41:03.687Z,2.80
2017-06-25T19:43:31.227Z,2.87
2017-06-25T19:45:58.742Z,2.77
2017-06-25T19:48:26.281Z,2.57
2017-06-25T19:50:53.962Z,2.90
2017-06-25T19:53:21.511Z,2.80
2017-06-25T19:55:49.000Z,2.70
2017-06-25T19:58:16.833Z,3.10
2017-06-25T20:00:44.317Z,2.53
2017-06-25T20:03:11.981Z,2.57
2017-06-25T20:05:39.514Z,2.60
2017-06-25T20:08:07.021Z,2.97
2017-06-25T20:10:34.547Z,3.50
2017-06-25T20:13:02.042Z,2.80
2017-06-25T20:15:29.961Z,2.77
2017-06-25T20:17:57.452Z,2.70
2017-06-25T20:20:24.939Z,2.73
2017-06-25T20:22:52.451Z,2.57
2017-06-25T20:25:19.971Z,3.03
2017-06-25T20:27:47.497Z,2.60
2017-06-25T20:30:14.994Z,3.03
2017-06-25T20:32:42.769Z,2.63
2017-06-25T20:35:11.027Z,2.53
2017-06-25T20:37:38.527Z,2.37
2017-06-25T20:40:06.036Z,2.87
2017-06-25T20:42:33.523Z,2.90
2017-06-25T20:45:01.843Z,3.00
2017-06-25T20:47:29.343Z,2.90
2017-06-25T20:49:56.856Z,3.10
2017-06-25T20:52:24.362Z,2.80
2017-06-25T20:54:52.933Z,3.10
2017-06-25T20:57:21.420Z,3.20
2017-06-25T20:59:48.940Z,2.73
2017-06-25T21:02:16.500Z,3.37
2017-06-25T21:04:44.038Z,3.60
2017-06-25T21:07:11.816Z,2.87
2017-06-25T21:09:39.332Z,2.70
2017-06-25T21:12:06.842Z,2.50
2017-06-25T21:14:34.366Z,2.80
2017-06-25T21:17:01.863Z,2.97
2017-06-25T21:19:29.405Z,2.50
2017-06-25T21:21:56.973Z,2.70
2017-06-25T21:24:24.827Z,3.70
2017-06-25T21:26:52.316Z,3.00
2017-06-25T21:29:19.819Z,2.83
2017-06-25T21:31:47.326Z,2.60
2017-06-25T21:34:14.827Z,2.93
2017-06-25T21:36:42.347Z,3.20
2017-06-25T21:39:09.844Z,4.17
2017-06-25T21:41:37.627Z,2.70
2017-06-25T21:44:05.904Z,2.83
2017-06-25T21:46:33.415Z,2.70
2017-06-25T21:49:00.939Z,3.10
2017-06-25T21:51:28.449Z,2.70
2017-06-25T21:53:56.276Z,3.77
2017-06-25T21:56:23.777Z,3.40
2017-06-25T21:58:51.284Z,2.80
2017-06-25T22:01:18.804Z,3.07
2017-06-25T22:03:46.317Z,3.30
2017-06-25T22:06:14.171Z,3.23
2017-06-25T22:08:41.659Z,3.43
2017-06-25T22:11:09.148Z,2.90
2017-06-25T22:13:36.663Z,3.30
2017-06-25T22:16:04.151Z,3.27
2017-06-25T22:18:32.063Z,3.40
2017-06-25T22:21:00.318Z,3.17
2017-06-25T22:23:27.874Z,3.10
2017-06-25T22:25:55.432Z,3.50
2017-06-25T22:28:22.919Z,3.07
2017-06-25T22:30:50.793Z,3.50
2017-06-25T22:33:18.307Z,3.60
2017-06-25T22:35:46.001Z,3.20
2017-06-25T22:38:14.279Z,3.60
2017-06-25T22:40:41.773Z,3.57
2017-06-25T22:43:09.623Z,3.30
2017-06-25T22:45:37.112Z,3.00
2017-06-25T22:48:04.611Z,3.10
2017-06-25T22:50:32.112Z,3.23
2017-06-25T22:52:59.599Z,3.17
2017-06-25T22:55:27.435Z,3.47
2017-06-25T22:57:54.936Z,3.07
2017-06-25T23:00:22.423Z,3.60
2017-06-25T23:02:49.924Z,3.53
2017-06-25T23:05:17.414Z,3.07
2017-06-25T23:07:44.920Z,3.30
2017-06-25T23:10:13.170Z,3.40
2017-06-25T23:12:40.687Z,3.77
2017-06-25T23:15:08.175Z,3.30
2017-06-25T23:17:35.679Z,3.70
2017-06-25T23:20:03.166Z,3.00
2017-06-25T23:22:30.676Z,3.03
2017-06-25T23:24:58.935Z,3.43
2017-06-25T23:27:26.460Z,3.40
2017-06-25T23:29:53.952Z,3.20
2017-06-25T23:32:21.484Z,3.93
2017-06-25T23:34:48.970Z,3.43
2017-06-25T23:37:16.464Z,3.00
2017-06-25T23:39:43.977Z,3.40
2017-06-25T23:42:11.461Z,3.90
2017-06-25T23:44:38.964Z,3.23
2017-06-25T23:47:06.455Z,3.57
2017-06-25T23:49:33.955Z,3.60
2017-06-25T23:52:02.217Z,4.20
2017-06-25T23:54:30.491Z,3.67
2017-06-25T23:56:57.971Z,3.90
2017-06-25T23:59:25.479Z,3.77
